Extreme weather reports worldwide

Highest temperatures

Station
 
Location
 
Name
 
Wind
Knots
Gust
Knots
Vis
SM
Temp/Dew
C
Baro
inHg
METAR
 
FMA SARF Formosa, AR Formosa Airport 7 6.21 39/19 29.79 SARF 211900Z 11007KT 9999 SCT030 FEW035TCU 39/19 Q1009
THE SBTE Teresina, BR Senador Petrônio Portela Airport 5 6.21 39/14 29.73 SBTE 211900Z 07005KT CAVOK 39/14 Q1007
ASU SGAS Asunción, PY Silvio Pettirossi International Airport 5 6.21 38/16 29.85 SGAS 211900Z 09005KT 340V140 9999 SCT033 38/16 Q1011
PMV SVMG Isla Margarita, VE Del Caribe Santiago Mariño International Airport 14 38/23 29.82 SVMG 211902Z AUTO 09014KT NCD 38/23 Q1010
CEN MMCN Ciudad Obregón, MX Ciudad Obregón International Airport 4 10 37/5 29.76 MMCN 211841Z 18004KT 10SM SKC 37/05 A2976

Station
 
Location
 
Name
 
Wind
Knots
Gust
Knots
Vis
SM
Temp/Dew
C
Baro
inHg
METAR
 
PSS SARP Posadas, AR Libertador Gral D Jose De San Martin Airport 5 6.21 37/20 29.88 SARP 211900Z 11005KT 9999 FEW040CB 37/20 Q1012 RMK CB OBS TO N AND SE
CGB SBCY Cuiabá, BR Marechal Rondon Airport 7 6.21 37/16 29.79 SBCY 211900Z 19007KT 9999 SCT020 37/16 Q1009
AGT SGES Ciudad del Este, PY Guarani International Airport 6 6.21 37/15 29.85 SGES 211900Z 07006KT 9999 SCT033 37/15 Q1011
HMO MMHO Hermosillo, MX General Ignacio P. Garcia International Airport 0 10 36/9 29.83 MMHO 211840Z 00000KT 10SM SKC 36/09 A2983 RMK HZY
LAP MMLP La Paz, MX Manuel Márquez de León International Airport 6 10 36/2 29.80 MMLP 211842Z 34006KT 10SM SKC 36/02 A2980 RMK HZ
CNQ SARC Corrientes, AR Corrientes Airport 8 3.73 36/18 29.85 SARC 211900Z 14008KT 6000 FEW020 BKN200 36/18 Q1011
RES SARE Resistencia, AR Resistencia International Airport 7 6.21 36/18 29.85 SARE 211900Z 12007KT CAVOK 36/18 Q1011
BVB SBBV Boa Vista, BR Atlas Brasil Cantanhede Airport 10 6.21 36/19 29.79 SBBV 211900Z 12010KT 9999 SCT040 FEW045TCU 36/19 Q1009
PMW SBPJ Palmas, BR Brigadeiro Lysias Rodrigues Airport 5 4.97 36/19 29.79 SBPJ 211900Z 16005KT 8000 SCT040 36/19 Q1009
PNZ SBPL Petrolina, BR Senador Nilo Coelho Airport 8 6.21 36/11 29.88 SBPL 211900Z 15008KT 9999 FEW040 36/11 Q1012
CUC SKCC Cúcuta, CO Camilo Daza International Airport 12 6.21 36/17 29.81 SKCC 211900Z 14012KT 080V170 9999 SCT023 36/17 A2981
CUL MMCL Culiacán, MX Bachigualato Federal International Airport 0 10 35/23 29.79 MMCL 211848Z 00000KT 10SM FEW020 35/23 A2979 RMK 8/100
NIM DRRN Niamey, NE Diori Hamani International Airport 2 6.21 35/13 29.85 DRRN 211900Z 31002KT 9999 FEW033 35/13 Q1011 NOSIG
IGR SARI Puerto Iguazu, AR Cataratas Del Iguazú International Airport 4 6.21 35/19 29.88 SARI 211900Z 36004KT 9999 SCT030 FEW040TCU 35/19 Q1012
MAB SBMA Marabá, BR João Correa da Rocha Airport 5 6.21 35/21 29.82 SBMA 211900Z 30005KT 9999 SCT030 35/21 Q1010
MCP SBMQ Macapá, BR Alberto Alcolumbre Airport 13 6.21 35/23 29.82 SBMQ 211900Z 06013KT 9999 FEW027 35/23 Q1010
ENO SGEN Encarnación, PY Encarnación Airport 3 6.21 35/18 29.85 SGEN 211900Z 05003KT 9999 SCT025 FEW040TCU 35/18 Q1011
BRM SVBM Barquisimeto, VE Barquisimeto International Airport 11 35/18 29.91 SVBM 211902Z AUTO 19011KT NCD 35/18 Q1013
KQN3 0 2.24 35/16 29.88 KQN3 211912Z AUTO 00000KT 3600 HZ CLR 35/16 A2988 RMK AO2 SLP107 WND DATA ESTMD
LMM MMLM Los Mochis, MX Valle del Fuerte International Airport 13 10 34/20 29.81 MMLM 211841Z 19013KT 10SM SKC 34/20 A2981 RMK HZY
GYM MMGM Guaymas, MX General José María Yáñez International Airport 8 10 34/19 29.75 MMGM 211842Z 20008KT 10SM SKC 34/19 A2975
SJD MMSD San José del Cabo, MX Los Cabos International Airport 12 12 34/17 29.82 MMSD 211848Z 10012KT 12SM SKC 34/17 A2982
POD GOSP Podor, SN Podor Airport 0 6.21 34/16 29.82 GOSP 211900Z 00000KT CAVOK 34/16 Q1010
STI MDST Santiago, DO Cibao International Airport 11 6.21 34/21 29.82 MDST 211900Z 11011KT 9999 SCT028 SCT300 34/21 Q1010
MGZA Zacapa, GT Zacapa Airport 4 6.21 34/18 MGZA 211900Z 02004KT 9999 FEW030 34/18 QFE 984/1 FEW150
STM SBSN Santarém, BR Maestro Wilson Fonseca Airport 12 6.21 34/24 29.76 SBSN 211900Z 10012KT 9999 FEW025 34/24 Q1008
TDD SLTR Trinidad, BO Teniente Av. Jorge Henrich Arauz Airport 4 6.21 34/23 29.79 SLTR 211900Z 33004KT 9999 FEW020 FEW023CB SCT200 34/23 Q1009
ORG SMZO Paramaribo, SR Zorg en Hoop Airport 8 6.21 34/22 29.82 SMZO 211900Z 06008KT 9999 FEW040 34/22 Q1010 NOSIG
AVW KAVQ Tucson, US Marana Regional Airport 3 10 34/-5 29.84 KAVQ 211915Z AUTO 10003KT 10SM CLR 34/M05 A2984 RMK AO2 T03401050
KL08 3 10 10 34/-1 29.76 KL08 211915Z AUTO VRB03G10KT 10SM CLR 34/M01 A2976 RMK AO2
ZLO MMZO Manzanillo, MX Playa De Oro International Airport 10 12 33/27 29.80 MMZO 211840Z 24010KT 12SM FEW020 SCT250 33/27 A2980 RMK 8/104
ZIH MMZH Ixtapa, MX Ixtapa Zihuatanejo International Airport 10 7 33/25 29.83 MMZH 211843Z 20010KT 7SM SCT020TCU SCT250 33/25 A2983 RMK 8/202 HZY ISOL CU
MZT MMMZ Mazatlán, MX General Rafael Buelna International Airport 7 15 33/24 29.80 MMMZ 211845Z 26007KT 15SM FEW025 33/24 A2980 RMK 8/200
MSLU 6 6.21 33/25 29.76 MSLU 211850Z 15006KT 9999 FEW030 33/25 Q1008 A2977
MFE KMFE Mc Allen, US Mc Allen Miller International Airport 7 10 33/18 29.95 KMFE 211853Z 07007KT 10SM CLR 34/19 A2995 RMK AO2 SLP141 T03390189
OND FYOA Ondangwa, NA Ondangwa Airport 2 33/-2 29.85 FYOA 211900Z AUTO 24002KT //// // ////// 33/M02 Q1011
MAX GOSM Matam, SN Ouro Sogui Airport 2 6.21 33/19 29.82 GOSM 211900Z 16002KT CAVOK 33/19 Q1010
MDAB Arroyo Barril, DO Arroyo Barril Airport 6 6.21 33/27 29.85 MDAB 211900Z 12006KT 9999 FEW025 SCT300 33/27 Q1011
SAP MHLM San Pedro Sula, HN Ramón Villeda Morales International Airport 5 6.21 33/21 29.76 MHLM 211900Z 11005KT 9999 SCT030 SCT250 33/21 Q1008 A2977 NOSIG
TEA MHTE Tela, HN Tela Airport 6 6.21 33/26 29.70 MHTE 211900Z 33006KT 9999 FEW026 33/26 Q1006
IGU SBFI Foz Do Iguaçu, BR Cataratas International Airport 6 6.21 33/19 29.88 SBFI 211900Z 33006KT 9999 SCT030 FEW035TCU 33/19 Q1012
OYK SBOI Oiapoque, BR Oiapoque Airport 6 6.21 33/23 29.85 SBOI 211900Z 10006KT 9999 SCT040 33/23 Q1011
BAQ SKBQ Barranquilla, CO Ernesto Cortissoz International Airport 4 6.21 33/25 29.80 SKBQ 211900Z VRB04KT 9999 SCT015 33/25 A2980 NOSIG
DCF TDCF Canefield, DM Canefield Airport 7 6.21 33/27 29.85 TDCF 211900Z 34007KT 9999 FEW020 33/27 Q1011
FDF TFFF Fort-de-France, MQ Martinique Aimé Césaire International Airport 7 6.21 33/23 29.88 TFFF 211900Z AUTO 19007KT 140V250 9999 BKN036 BKN042 33/23 Q1012 NOSIG